createdAt,value
2019-06-20T08:07:29.295Z,26.70
2019-06-20T08:09:58.523Z,26.70
2019-06-20T08:12:27.802Z,26.80
2019-06-20T08:14:58.305Z,26.90
2019-06-20T08:17:35.292Z,27.10
2019-06-20T08:19:59.098Z,27.20
2019-06-20T08:22:28.356Z,27.20
2019-06-20T08:24:58.953Z,27.30
2019-06-20T08:27:46.625Z,27.30
2019-06-20T08:30:15.920Z,27.20
2019-06-20T08:32:45.124Z,27.10
2019-06-20T08:35:15.560Z,27.20
2019-06-20T08:37:44.872Z,27.00
2019-06-20T08:40:14.403Z,26.90
2019-06-20T08:42:43.634Z,27.00
2019-06-20T08:45:13.116Z,27.00
2019-06-20T08:47:42.363Z,26.90
2019-06-20T08:50:11.795Z,26.90
2019-06-20T08:52:40.996Z,26.90
2019-06-20T08:55:10.558Z,27.00
2019-06-20T08:57:39.760Z,27.10
2019-06-20T09:02:38.506Z,26.50
2019-06-20T09:05:08.270Z,26.50
2019-06-20T09:07:40.926Z,26.70
2019-06-20T09:10:09.770Z,26.90
2019-06-20T09:12:38.979Z,27.20
2019-06-20T09:15:09.333Z,27.40
2019-06-20T09:17:38.758Z,27.70
2019-06-20T09:20:09.185Z,27.90
2019-06-20T09:22:39.366Z,28.00
2019-06-20T09:25:09.319Z,28.20
2019-06-20T09:27:38.615Z,28.30
2019-06-20T09:30:09.354Z,28.20
2019-06-20T09:32:38.757Z,28.20
2019-06-20T09:35:09.094Z,28.00
2019-06-20T09:37:38.953Z,28.00
2019-06-20T09:40:10.215Z,28.00
2019-06-20T09:42:39.526Z,28.10
2019-06-20T09:45:11.888Z,28.30
2019-06-20T09:47:42.304Z,28.60
2019-06-20T09:50:12.958Z,28.90
2019-06-20T09:52:42.305Z,29.10
2019-06-20T09:55:12.103Z,29.40
2019-06-20T09:57:41.347Z,29.50
2019-06-20T10:00:13.876Z,29.60
2019-06-20T10:02:43.096Z,29.70
2019-06-20T10:05:13.021Z,29.70
2019-06-20T10:07:42.240Z,29.70
2019-06-20T10:10:12.584Z,29.80
2019-06-20T10:15:28.510Z,29.20
2019-06-20T10:17:57.903Z,28.80
2019-06-20T10:20:28.820Z,28.70
2019-06-20T10:27:58.089Z,28.90
2019-06-20T10:30:27.991Z,28.70
2019-06-20T10:32:57.756Z,28.60
2019-06-20T10:55:22.487Z,29.00
2019-06-20T11:05:21.422Z,29.00
2019-06-20T11:07:50.987Z,28.90
2019-06-20T11:12:54.826Z,28.30
2019-06-20T11:50:15.354Z,28.10
2019-06-20T11:52:45.856Z,28.10
2019-06-20T13:57:22.402Z,28.50
2019-06-20T13:59:52.922Z,28.50
2019-06-20T14:02:22.544Z,28.40
2019-06-20T14:04:52.219Z,28.50
2019-06-20T14:07:21.609Z,28.60
2019-06-20T14:09:51.131Z,28.60
2019-06-20T14:12:20.523Z,28.50
2019-06-20T16:38:58.848Z,26.30
2019-06-20T16:41:28.043Z,26.80
2019-06-20T16:43:58.615Z,27.30
2019-06-20T16:46:27.850Z,27.00
2019-06-20T17:28:38.924Z,26.60
2019-06-20T17:31:08.147Z,26.60
2019-06-20T17:38:37.932Z,26.70
2019-06-20T17:41:08.217Z,26.90
2019-06-20T17:43:37.423Z,26.90
2019-06-20T17:46:06.648Z,27.00
2019-06-20T17:48:35.851Z,27.30
2019-06-20T17:51:05.083Z,27.60
2019-06-20T17:53:34.311Z,28.00
2019-06-20T17:56:04.535Z,28.40
2019-06-20T17:58:33.758Z,28.70
2019-06-20T18:01:03.273Z,29.00
2019-06-20T18:03:32.498Z,28.60
2019-06-20T18:06:01.736Z,28.30
